| Time | Avg. Air Temp | Dew Point | Avg. Rel Humidity | Avg. 2 Min Wind Speed | Max Gust Velocity | MGV Time | MGV Direction | Avg. Spot Wind Velocity |
|---|---|---|---|---|---|---|---|---|
| 2026-09-01 00:10:00 | 7° C | 5° C | 86% | 24 km/h | 28 km/h | 00:09:00 | S | 23 km/h |
| 23:10:00 | 7° C | 5° C | 89% | 20 km/h | 31 km/h | 23:06:00 | SE | 23 km/h |
| 22:10:00 | 7° C | 5° C | 89% | 15 km/h | 30 km/h | 22:07:00 | S | 19 km/h |
| 21:10:00 | 7° C | 5° C | 89% | 18 km/h | 22 km/h | 21:10:00 | S | 14 km/h |
| 20:10:00 | 6° C | 5° C | 89% | 16 km/h | 20 km/h | 20:09:00 | SE | 13 km/h |
| 19:10:00 | 7° C | 5° C | 92% | 14 km/h | 20 km/h | 19:06:00 | SE | 14 km/h |
| 18:10:00 | 7° C | 5° C | 92% | 12 km/h | 15 km/h | 18:09:00 | S | 10 km/h |
| 17:10:00 | 8° C | 6° C | 90% | 3 km/h | 14 km/h | 17:07:00 | S | 7 km/h |
| 16:10:00 | 7° C | 7° C | 96% | 5 km/h | 13 km/h | 16:06:00 | E | 6 km/h |
| 15:10:00 | 7° C | 6° C | 98% | 6 km/h | 15 km/h | 15:07:00 | E | 9 km/h |
| 14:10:00 | 6° C | 6° C | 100% | 7 km/h | 16 km/h | 14:09:00 | NE | 6 km/h |
| 13:10:00 | 5° C | 5° C | 100% | 9 km/h | 13 km/h | 13:10:00 | SE | 8 km/h |
| 12:10:00 | 4° C | 4° C | 100% | 13 km/h | 15 km/h | 12:09:00 | SE | 12 km/h |
| 11:10:00 | 4° C | 5° C | 100% | 14 km/h | 20 km/h | 11:06:00 | SE | 12 km/h |
| 10:10:00 | 4° C | 4° C | 100% | 10 km/h | 18 km/h | 10:09:00 | E | 9 km/h |
| 09:10:00 | 3° C | 3° C | 100% | 13 km/h | 18 km/h | 09:06:00 | SE | 13 km/h |
| 08:10:00 | 3° C | 3° C | 100% | 17 km/h | 21 km/h | 08:09:00 | S | 16 km/h |
| 07:10:00 | 2° C | 2° C | 100% | 10 km/h | 13 km/h | 07:06:00 | SE | 11 km/h |
| 06:10:00 | 3° C | 2° C | 100% | 3 km/h | 5 km/h | 06:06:00 | E | 3 km/h |
| 05:10:00 | 3° C | 3° C | 100% | 2 km/h | 6 km/h | 05:07:00 | W | 4 km/h |
| 04:10:00 | 3° C | 3° C | 100% | 12 km/h | 15 km/h | 04:06:00 | SW | 12 km/h |
| 03:10:00 | 3° C | 3° C | 100% | 12 km/h | 17 km/h | 03:07:00 | SW | 13 km/h |
| 02:10:00 | 3° C | 3° C | 100% | 17 km/h | 20 km/h | 02:08:00 | SW | 18 km/h |
| 01:10:00 | 3° C | 3° C | 100% | 14 km/h | 16 km/h | 01:08:00 | SW | 14 km/h |
Subpeak Weather
| Time | Avg. Air Temp | Dew Point | Avg. Rel Humidity | Avg. 2 Min Wind Speed | Max Gust Velocity | MGV Time | MGV Direction | Avg. Spot Wind Velocity |
|---|---|---|---|---|---|---|---|---|
| 2026-09-01 00:10:00 | 7° C | 5° C | 86% | 24 km/h | 28 km/h | 00:09:00 | S | 23 km/h |
| 00:05:00 | 7° C | 5° C | 86% | 21 km/h | 27 km/h | 00:01:00 | SE | 23 km/h |
| 00:00:00 | 7° C | 5° C | 87% | 24 km/h | 32 km/h | 00:00:00 | S | 21 km/h |
| 23:55:00 | 7° C | 5° C | 87% | 19 km/h | 28 km/h | 23:52:00 | S | 23 km/h |
| 23:50:00 | 7° C | 5° C | 87% | 22 km/h | 30 km/h | 23:46:00 | S | 21 km/h |
| 23:45:00 | 7° C | 5° C | 87% | 24 km/h | 32 km/h | 23:45:00 | SE | 25 km/h |
| 23:40:00 | 7° C | 5° C | 87% | 25 km/h | 35 km/h | 23:40:00 | S | 23 km/h |
| 23:35:00 | 7° C | 5° C | 88% | 25 km/h | 30 km/h | 23:35:00 | S | 25 km/h |
| 23:30:00 | 7° C | 5° C | 88% | 24 km/h | 31 km/h | 23:26:00 | SE | 26 km/h |
| 23:25:00 | 7° C | 5° C | 88% | 22 km/h | 28 km/h | 23:23:00 | S | 23 km/h |
| 23:20:00 | 7° C | 5° C | 88% | 29 km/h | 33 km/h | 23:19:00 | S | 27 km/h |
| 23:15:00 | 7° C | 5° C | 89% | 22 km/h | 37 km/h | 23:11:00 | SE | 25 km/h |
| 23:10:00 | 7° C | 5° C | 89% | 20 km/h | 31 km/h | 23:06:00 | SE | 23 km/h |




